Thunder radar more information blitzortung!


Radar de pluja more information rain snow radar


Visita la nostra xarxa de llocs de meteo:

Template documentation
and downloads

And another site



No particular awareness of the weather is required.    There are no Weather-warnings

Pagina Historial Weather Underground text

Diari Resum Agost 11, 2017 Unitats:  Tant    Imperial   Mètric
« Previous Dia
SegĂźent Dia »
Diari Setmana Mensual Anual Personalitzada
  Maxima: Minima: Media:
Temperatura: 81.5 °F /  27.5 °C 59.5 °F /  15.3 °C 71.6 °F /  22 °C
Punt de rosada: 57 °F /  13.9 °C 42.1 °F /  5.6 °C 52.7 °F /  11.5 °C
Humitat: 76 % 32 % 53 %
Wind Speed: 15 mph /  24.1 km/h - 4.4 mph /  7.1 km/h
RĂ fegues de vent: 15 mph /  24.1 km/h - -
Vent:- - ESE
Pression baro: 30.2 in /  1021.9 hPa 30.1 in /  1017.8 hPa -
Precipitacions: 0 in /  0.0 mm    
Historical Graphs
 
 
Dades de taula per Agost 11, 2017
Temps Temperatura Punt de rosada Pression baro Vent Wind Speed RĂ fegues de vent Humitat Rainfall Rate (Hourly)
00:00 70.5 °F /  21.4 °C 51.1 °F /  10.6 °C 30.1 in /  1018.8 hPa WSW 1.4 mph /  2.3 km/h 1.4 mph /  2.3 km/h 50 % 0 in /  0.0 mm
00:05 70.5 °F /  21.4 °C 50.4 °F /  10.2 °C 30.1 in /  1018.8 hPa WSW 3.5 mph /  5.6 km/h 3.5 mph /  5.6 km/h 49 % 0 in /  0.0 mm
00:10 70.5 °F /  21.4 °C 50.4 °F /  10.2 °C 30.1 in /  1018.8 hPa NW 3.5 mph /  5.6 km/h 3.5 mph /  5.6 km/h 49 % 0 in /  0.0 mm
00:15 70.3 °F /  21.3 °C 49.6 °F /  9.8 °C 30.1 in /  1018.8 hPa North 2.3 mph /  3.7 km/h 2.3 mph /  3.7 km/h 48 % 0 in /  0.0 mm
00:20 70.3 °F /  21.3 °C 49.6 °F /  9.8 °C 30.1 in /  1018.8 hPa ENE 2.3 mph /  3.7 km/h 2.3 mph /  3.7 km/h 48 % 0 in /  0.0 mm
00:25 70.2 °F /  21.2 °C 48.9 °F /  9.4 °C 30.1 in /  1018.8 hPa NNE 3.1 mph /  5.0 km/h 3.1 mph /  5.0 km/h 47 % 0 in /  0.0 mm
00:30 70.2 °F /  21.2 °C 48.9 °F /  9.4 °C 30.1 in /  1018.8 hPa East 2.3 mph /  3.7 km/h 2.3 mph /  3.7 km/h 47 % 0 in /  0.0 mm
00:35 70 °F /  21.1 °C 48.7 °F /  9.3 °C 30.1 in /  1018.8 hPa ENE 2.3 mph /  3.7 km/h 2.3 mph /  3.7 km/h 47 % 0 in /  0.0 mm
00:40 69.6 °F /  20.9 °C 49.1 °F /  9.5 °C 30.1 in /  1018.8 hPa ENE 1.6 mph /  2.6 km/h 1.6 mph /  2.6 km/h 48 % 0 in /  0.0 mm
00:45 69.4 °F /  20.8 °C 48.9 °F /  9.4 °C 30.1 in /  1018.8 hPa East 1.2 mph /  1.9 km/h   48 % 0 in /  0.0 mm
00:50 69.3 °F /  20.7 °C 48.7 °F /  9.3 °C 30.1 in /  1018.8 hPa West 2.3 mph /  3.7 km/h 2.3 mph /  3.7 km/h 48 % 0 in /  0.0 mm
00:55 69.1 °F /  20.6 °C 48.6 °F /  9.2 °C 30.1 in /  1018.8 hPa West 1.2 mph /  1.9 km/h   48 % 0 in /  0.0 mm
01:00 68.9 °F /  20.5 °C 48.4 °F /  9.1 °C 30.1 in /  1018.8 hPa West 3.5 mph /  5.6 km/h 3.5 mph /  5.6 km/h 48 % 0 in /  0.0 mm
01:05 68.7 °F /  20.4 °C 48.2 °F /  9.0 °C 30.1 in /  1018.8 hPa West 5.8 mph /  9.3 km/h 5.8 mph /  9.3 km/h 48 % 0 in /  0.0 mm
01:10 68.5 °F /  20.3 °C 47.5 °F /  8.6 °C 30.1 in /  1018.8 hPa WSW 4.6 mph /  7.4 km/h 4.6 mph /  7.4 km/h 47 % 0 in /  0.0 mm
01:15 68.4 °F /  20.2 °C 47.3 °F /  8.5 °C 30.1 in /  1018.8 hPa NE 2.3 mph /  3.7 km/h 2.3 mph /  3.7 km/h 47 % 0 in /  0.0 mm
01:20 68.2 °F /  20.1 °C 47.1 °F /  8.4 °C 30.1 in /  1018.8 hPa NNE 1.4 mph /  2.3 km/h   47 % 0 in /  0.0 mm
01:25 68 °F /  20.0 °C 46.9 °F /  8.3 °C 30.1 in /  1018.8 hPa Calm     47 % 0 in /  0.0 mm
01:30 67.6 °F /  19.8 °C 47.1 °F /  8.4 °C 30.1 in /  1018.8 hPa WSW 3.5 mph /  5.6 km/h 3.5 mph /  5.6 km/h 48 % 0 in /  0.0 mm
01:40 59.7 °F /  15.4 °C 42.1 °F /  5.6 °C 30.1 in /  1018.8 hPa West 2 mph /  3.2 km/h 3 mph /  4.8 km/h 52 % 0 in /  0.0 mm
01:50 59.5 °F /  15.3 °C 42.4 °F /  5.8 °C 30.1 in /  1018.8 hPa WNW 1 mph /  1.6 km/h 4 mph /  6.4 km/h 53 % 0 in /  0.0 mm
02:00 59.5 °F /  15.3 °C 42.4 °F /  5.8 °C 30.1 in /  1018.8 hPa West 1 mph /  1.6 km/h 3 mph /  4.8 km/h 53 % 0 in /  0.0 mm
02:10 59.5 °F /  15.3 °C 43 °F /  6.1 °C 30.1 in /  1018.8 hPa NNE 1 mph /  1.6 km/h 4 mph /  6.4 km/h 54 % 0 in /  0.0 mm
02:20 59.5 °F /  15.3 °C 43 °F /  6.1 °C 30.1 in /  1019.9 hPa NE 1 mph /  1.6 km/h 2 mph /  3.2 km/h 54 % 0 in /  0.0 mm
02:30 59.7 °F /  15.4 °C 43 °F /  6.1 °C 30.1 in /  1019.9 hPa NNW 1 mph /  1.6 km/h 3 mph /  4.8 km/h 54 % 0 in /  0.0 mm
02:40 60.4 °F /  15.8 °C 43.7 °F /  6.5 °C 30.1 in /  1019.9 hPa WNW 1 mph /  1.6 km/h 2 mph /  3.2 km/h 54 % 0 in /  0.0 mm
02:50 60.1 °F /  15.6 °C 43.9 °F /  6.6 °C 30.1 in /  1019.9 hPa WSW 1 mph /  1.6 km/h 3 mph /  4.8 km/h 55 % 0 in /  0.0 mm
03:10 60.8 °F /  16.0 °C 44.4 °F /  6.9 °C 30.1 in /  1019.9 hPa West 1 mph /  1.6 km/h 2 mph /  3.2 km/h 55 % 0 in /  0.0 mm
03:20 62.2 °F /  16.8 °C 45.9 °F /  7.7 °C 30.1 in /  1018.8 hPa North 3 mph /  4.8 km/h 5 mph /  8.0 km/h 55 % 0 in /  0.0 mm
03:30 63.1 °F /  17.3 °C 46.2 °F /  7.9 °C 30.1 in /  1018.8 hPa North 2 mph /  3.2 km/h 3 mph /  4.8 km/h 54 % 0 in /  0.0 mm
03:40 62.6 °F /  17.0 °C 45.1 °F /  7.3 °C 30.1 in /  1019.9 hPa NE 1 mph /  1.6 km/h 4 mph /  6.4 km/h 53 % 0 in /  0.0 mm
03:50 63 °F /  17.2 °C 45.7 °F /  7.6 °C 30.1 in /  1019.9 hPa NE 3 mph /  4.8 km/h 5 mph /  8.0 km/h 53 % 0 in /  0.0 mm
04:00 63.9 °F /  17.7 °C 46.4 °F /  8.0 °C 30.1 in /  1019.9 hPa NE 1 mph /  1.6 km/h 4 mph /  6.4 km/h 53 % 0 in /  0.0 mm
04:10 64.6 °F /  18.1 °C 47.1 °F /  8.4 °C 30.1 in /  1019.9 hPa NE 1 mph /  1.6 km/h 4 mph /  6.4 km/h 53 % 0 in /  0.0 mm
04:20 65.3 °F /  18.5 °C 47.7 °F /  8.7 °C 30.1 in /  1019.9 hPa NE 1 mph /  1.6 km/h 3 mph /  4.8 km/h 53 % 0 in /  0.0 mm
04:30 65.5 °F /  18.6 °C 47.5 °F /  8.6 °C 30.1 in /  1019.9 hPa ENE 3 mph /  4.8 km/h 4 mph /  6.4 km/h 52 % 0 in /  0.0 mm
04:40 65.8 °F /  18.8 °C 47.7 °F /  8.7 °C 30.1 in /  1019.9 hPa NE 1 mph /  1.6 km/h 3 mph /  4.8 km/h 52 % 0 in /  0.0 mm
04:50 66.4 °F /  19.1 °C 47.7 °F /  8.7 °C 30.1 in /  1019.9 hPa NNE 2 mph /  3.2 km/h 3 mph /  4.8 km/h 51 % 0 in /  0.0 mm
05:00 67.1 °F /  19.5 °C 47.8 °F /  8.8 °C 30.1 in /  1019.9 hPa NNE 1 mph /  1.6 km/h 3 mph /  4.8 km/h 50 % 0 in /  0.0 mm
05:10 66.6 °F /  19.2 °C 47.3 °F /  8.5 °C 30.1 in /  1019.9 hPa NNE 3 mph /  4.8 km/h 5 mph /  8.0 km/h 50 % 0 in /  0.0 mm
05:20 67.3 °F /  19.6 °C 48 °F /  8.9 °C 30.1 in /  1018.8 hPa NE 3 mph /  4.8 km/h 4 mph /  6.4 km/h 50 % 0 in /  0.0 mm
05:30 67.8 °F /  19.9 °C 48.6 °F /  9.2 °C 30.1 in /  1018.8 hPa ENE 3 mph /  4.8 km/h 4 mph /  6.4 km/h 50 % 0 in /  0.0 mm
10:34 69.1 °F /  20.6 °C 49.6 °F /  9.8 °C 30.1 in /  1019.9 hPa ENE 3.5 mph /  5.6 km/h 3.5 mph /  5.6 km/h 50 % 0 in /  0.0 mm
10:35 69.1 °F /  20.6 °C 49.6 °F /  9.8 °C 30.1 in /  1019.9 hPa ENE 3.5 mph /  5.6 km/h 3.5 mph /  5.6 km/h 50 % 0 in /  0.0 mm
10:40 69.3 °F /  20.7 °C 49.8 °F /  9.9 °C 30.1 in /  1019.9 hPa SE 2.4 mph /  3.9 km/h 2.4 mph /  3.9 km/h 50 % 0 in /  0.0 mm
10:45 70 °F /  21.1 °C 49.8 °F /  9.9 °C 30.1 in /  1019.9 hPa ENE 4.9 mph /  7.9 km/h 4.9 mph /  7.9 km/h 49 % 0 in /  0.0 mm
10:50 70.2 °F /  21.2 °C 50.2 °F /  10.1 °C 30.1 in /  1019.9 hPa WNW 2.9 mph /  4.7 km/h 2.9 mph /  4.7 km/h 49 % 0 in /  0.0 mm
10:55 70.7 °F /  21.5 °C 50 °F /  10.0 °C 30.1 in /  1019.9 hPa ENE 2.4 mph /  3.9 km/h 2.4 mph /  3.9 km/h 48 % 0 in /  0.0 mm
11:00 69.8 °F /  21.0 °C 49.3 °F /  9.6 °C 30.1 in /  1019.9 hPa ESE 2.4 mph /  3.9 km/h 2.4 mph /  3.9 km/h 48 % 0 in /  0.0 mm
11:05 69.6 °F /  20.9 °C 49.6 °F /  9.8 °C 30.1 in /  1019.9 hPa ENE 8.1 mph /  13.0 km/h 8.1 mph /  13.0 km/h 49 % 0 in /  0.0 mm
11:10 69.8 °F /  21.0 °C 49.3 °F /  9.6 °C 30.1 in /  1019.9 hPa ESE 4.6 mph /  7.4 km/h 4.6 mph /  7.4 km/h 48 % 0 in /  0.0 mm
11:15 71.2 °F /  21.8 °C 50.5 °F /  10.3 °C 30.1 in /  1018.8 hPa ENE 2.9 mph /  4.7 km/h 2.9 mph /  4.7 km/h 48 % 0 in /  0.0 mm
11:20 69.8 °F /  21.0 °C 48.7 °F /  9.3 °C 30.1 in /  1018.8 hPa ESE 5.8 mph /  9.3 km/h 5.8 mph /  9.3 km/h 47 % 0 in /  0.0 mm
11:25 70.9 °F /  21.6 °C 50.2 °F /  10.1 °C 30.1 in /  1018.8 hPa ESE 4.6 mph /  7.4 km/h 4.6 mph /  7.4 km/h 48 % 0 in /  0.0 mm
11:30 72 °F /  22.2 °C 50.5 °F /  10.3 °C 30.1 in /  1019.9 hPa South 3.5 mph /  5.6 km/h 3.5 mph /  5.6 km/h 47 % 0 in /  0.0 mm
11:35 73 °F /  22.8 °C 51.6 °F /  10.9 °C 30.1 in /  1019.9 hPa SSE 3.5 mph /  5.6 km/h 3.5 mph /  5.6 km/h 47 % 0 in /  0.0 mm
11:40 72.7 °F /  22.6 °C 50.2 °F /  10.1 °C 30.1 in /  1019.9 hPa SSE 5.8 mph /  9.3 km/h 5.8 mph /  9.3 km/h 45 % 0 in /  0.0 mm
11:45 72.5 °F /  22.5 °C 50.5 °F /  10.3 °C 30.1 in /  1019.9 hPa NE 2.3 mph /  3.7 km/h 2.3 mph /  3.7 km/h 46 % 0 in /  0.0 mm
11:50 72.1 °F /  22.3 °C 49.6 °F /  9.8 °C 30.1 in /  1019.9 hPa East 4.3 mph /  6.9 km/h 4.3 mph /  6.9 km/h 45 % 0 in /  0.0 mm
11:55 72.5 °F /  22.5 °C 49.8 °F /  9.9 °C 30.1 in /  1019.9 hPa ENE 4.6 mph /  7.4 km/h 4.6 mph /  7.4 km/h 45 % 0 in /  0.0 mm
12:00 73.8 °F /  23.2 °C 51.1 °F /  10.6 °C 30.1 in /  1019.9 hPa West 3.5 mph /  5.6 km/h 3.5 mph /  5.6 km/h 45 % 0 in /  0.0 mm
12:05 73.6 °F /  23.1 °C 50.4 °F /  10.2 °C 30.1 in /  1019.9 hPa ESE 4.6 mph /  7.4 km/h 4.6 mph /  7.4 km/h 44 % 0 in /  0.0 mm
12:10 73.8 °F /  23.2 °C 50.5 °F /  10.3 °C 30.1 in /  1019.9 hPa NNW 2.3 mph /  3.7 km/h 2.3 mph /  3.7 km/h 44 % 0 in /  0.0 mm
12:15 74.7 °F /  23.7 °C 51.3 °F /  10.7 °C 30.1 in /  1019.9 hPa ENE 2.3 mph /  3.7 km/h 2.3 mph /  3.7 km/h 44 % 0 in /  0.0 mm
12:20 75.2 °F /  24.0 °C 50.5 °F /  10.3 °C 30.1 in /  1019.9 hPa South 4 mph /  6.4 km/h 4 mph /  6.4 km/h 42 % 0 in /  0.0 mm
12:25 75.2 °F /  24.0 °C 50.5 °F /  10.3 °C 30.1 in /  1019.9 hPa SSE 5.8 mph /  9.3 km/h 5.8 mph /  9.3 km/h 42 % 0 in /  0.0 mm
12:30 75.4 °F /  24.1 °C 51.3 °F /  10.7 °C 30.1 in /  1018.8 hPa SW 4.6 mph /  7.4 km/h 4.6 mph /  7.4 km/h 43 % 0 in /  0.0 mm
12:35 75.6 °F /  24.2 °C 50.9 °F /  10.5 °C 30.1 in /  1018.8 hPa SW 4.6 mph /  7.4 km/h 4.6 mph /  7.4 km/h 42 % 0 in /  0.0 mm
12:40 74.7 °F /  23.7 °C 50 °F /  10.0 °C 30.1 in /  1018.8 hPa WNW 4.6 mph /  7.4 km/h 4.6 mph /  7.4 km/h 42 % 0 in /  0.0 mm
12:45 75.7 °F /  24.3 °C 50.4 °F /  10.2 °C 30.1 in /  1019.9 hPa WSW 2.9 mph /  4.7 km/h 2.9 mph /  4.7 km/h 41 % 0 in /  0.0 mm
12:50 76.3 °F /  24.6 °C 50.7 °F /  10.4 °C 30.1 in /  1019.9 hPa NW 3.5 mph /  5.6 km/h 3.5 mph /  5.6 km/h 41 % 0 in /  0.0 mm
12:55 76.3 °F /  24.6 °C 50.7 °F /  10.4 °C 30.1 in /  1019.9 hPa SSW 1.2 mph /  1.9 km/h   41 % 0 in /  0.0 mm
13:00 78.3 °F /  25.7 °C 52 °F /  11.1 °C 30.1 in /  1019.9 hPa SW 3.6 mph /  5.8 km/h 3.6 mph /  5.8 km/h 40 % 0 in /  0.0 mm
13:05 79 °F /  26.1 °C 52.5 °F /  11.4 °C 30.1 in /  1019.9 hPa South 4.6 mph /  7.4 km/h 4.6 mph /  7.4 km/h 40 % 0 in /  0.0 mm
13:10 79.9 °F /  26.6 °C 52 °F /  11.1 °C 30.1 in /  1019.9 hPa South 6.9 mph /  11.1 km/h 6.9 mph /  11.1 km/h 38 % 0 in /  0.0 mm
13:15 79.7 °F /  26.5 °C 51.8 °F /  11.0 °C 30.1 in /  1019.9 hPa SSE 3.5 mph /  5.6 km/h 3.5 mph /  5.6 km/h 38 % 0 in /  0.0 mm
13:20 79.7 °F /  26.5 °C 51.8 °F /  11.0 °C 30.1 in /  1019.9 hPa SSE 3.5 mph /  5.6 km/h 3.5 mph /  5.6 km/h 38 % 0 in /  0.0 mm
13:25 79.7 °F /  26.5 °C 51.1 °F /  10.6 °C 30.1 in /  1019.9 hPa East 3.3 mph /  5.3 km/h 3.3 mph /  5.3 km/h 37 % 0 in /  0.0 mm
13:30 80.6 °F /  27.0 °C 51.3 °F /  10.7 °C 30.1 in /  1018.8 hPa SSW 5.8 mph /  9.3 km/h 5.8 mph /  9.3 km/h 36 % 0 in /  0.0 mm
13:35 78.8 °F /  26.0 °C 48 °F /  8.9 °C 30.1 in /  1018.8 hPa SW 5.8 mph /  9.3 km/h 5.8 mph /  9.3 km/h 34 % 0 in /  0.0 mm
13:40 79.3 °F /  26.3 °C 48.6 °F /  9.2 °C 30.1 in /  1018.8 hPa ESE 5.9 mph /  9.5 km/h 5.9 mph /  9.5 km/h 34 % 0 in /  0.0 mm
13:45 80.1 °F /  26.7 °C 49.8 °F /  9.9 °C 30.1 in /  1018.8 hPa SE 3.5 mph /  5.6 km/h 3.5 mph /  5.6 km/h 35 % 0 in /  0.0 mm
13:50 80.2 °F /  26.8 °C 47.7 °F /  8.7 °C 30.1 in /  1018.8 hPa SSE 5.8 mph /  9.3 km/h 5.8 mph /  9.3 km/h 32 % 0 in /  0.0 mm
13:55 79.3 °F /  26.3 °C 47.7 °F /  8.7 °C 30.1 in /  1018.8 hPa North 5.8 mph /  9.3 km/h 5.8 mph /  9.3 km/h 33 % 0 in /  0.0 mm
14:00 79.9 °F /  26.6 °C 48.2 °F /  9.0 °C 30.1 in /  1018.8 hPa SW 5.8 mph /  9.3 km/h 5.8 mph /  9.3 km/h 33 % 0 in /  0.0 mm
14:05 80.6 °F /  27.0 °C 48 °F /  8.9 °C 30.1 in /  1018.8 hPa SSE 3.5 mph /  5.6 km/h 3.5 mph /  5.6 km/h 32 % 0 in /  0.0 mm
14:10 81.3 °F /  27.4 °C 48.6 °F /  9.2 °C 30.1 in /  1018.8 hPa South 4.6 mph /  7.4 km/h 4.6 mph /  7.4 km/h 32 % 0 in /  0.0 mm
14:15 81.5 °F /  27.5 °C 48.7 °F /  9.3 °C 30.1 in /  1018.8 hPa ESE 4.7 mph /  7.6 km/h 4.7 mph /  7.6 km/h 32 % 0 in /  0.0 mm
14:20 81.5 °F /  27.5 °C 48.7 °F /  9.3 °C 30.1 in /  1018.8 hPa SSW 4.6 mph /  7.4 km/h 4.6 mph /  7.4 km/h 32 % 0 in /  0.0 mm
14:25 80.8 °F /  27.1 °C 48.2 °F /  9.0 °C 30.1 in /  1018.8 hPa ESE 8.1 mph /  13.0 km/h 8.1 mph /  13.0 km/h 32 % 0 in /  0.0 mm
14:30 79.2 °F /  26.2 °C 47.7 °F /  8.7 °C 30.1 in /  1018.8 hPa ENE 5.8 mph /  9.3 km/h 5.8 mph /  9.3 km/h 33 % 0 in /  0.0 mm
14:35 79.3 °F /  26.3 °C 49.3 °F /  9.6 °C 30.1 in /  1018.8 hPa SE 6.9 mph /  11.1 km/h 6.9 mph /  11.1 km/h 35 % 0 in /  0.0 mm
14:40 79.3 °F /  26.3 °C 51.4 °F /  10.8 °C 30.1 in /  1018.8 hPa South 8.1 mph /  13.0 km/h 8.1 mph /  13.0 km/h 38 % 0 in /  0.0 mm
14:45 79.2 °F /  26.2 °C 52.2 °F /  11.2 °C 30.1 in /  1018.8 hPa ENE 15 mph /  24.1 km/h 15 mph /  24.1 km/h 39 % 0 in /  0.0 mm
14:50 78.6 °F /  25.9 °C 51.6 °F /  10.9 °C 30.1 in /  1018.8 hPa SSE 9.2 mph /  14.8 km/h 9.2 mph /  14.8 km/h 39 % 0 in /  0.0 mm
14:55 79.2 °F /  26.2 °C 52.9 °F /  11.6 °C 30.1 in /  1018.8 hPa ESE 6.9 mph /  11.1 km/h 6.9 mph /  11.1 km/h 40 % 0 in /  0.0 mm
15:00 79.5 °F /  26.4 °C 53.1 °F /  11.7 °C 30.1 in /  1018.8 hPa WSW 10.4 mph /  16.7 km/h 10.4 mph /  16.7 km/h 40 % 0 in /  0.0 mm
15:05 78.8 °F /  26.0 °C 53.1 °F /  11.7 °C 30.1 in /  1018.8 hPa SW 5.8 mph /  9.3 km/h 5.8 mph /  9.3 km/h 41 % 0 in /  0.0 mm
15:10 79.7 °F /  26.5 °C 54 °F /  12.2 °C 30.1 in /  1018.8 hPa SSE 8.1 mph /  13.0 km/h 8.1 mph /  13.0 km/h 41 % 0 in /  0.0 mm
15:11 79.3 °F /  26.3 °C 53.6 °F /  12.0 °C 30.1 in /  1018.8 hPa South 8.1 mph /  13.0 km/h 8.1 mph /  13.0 km/h 41 % 0 in /  0.0 mm
15:16 78.3 °F /  25.7 °C 53.2 °F /  11.8 °C 30.1 in /  1017.8 hPa East 8.7 mph /  14.0 km/h 8.7 mph /  14.0 km/h 42 % 0 in /  0.0 mm
15:21 78.6 °F /  25.9 °C 53.6 °F /  12.0 °C 30.1 in /  1017.8 hPa South 6.9 mph /  11.1 km/h 6.9 mph /  11.1 km/h 42 % 0 in /  0.0 mm
15:26 78.4 °F /  25.8 °C 54.1 °F /  12.3 °C 30.1 in /  1017.8 hPa ESE 5.8 mph /  9.3 km/h 5.8 mph /  9.3 km/h 43 % 0 in /  0.0 mm
15:27 78.4 °F /  25.8 °C 54.1 °F /  12.3 °C 30.1 in /  1017.8 hPa East 6 mph /  9.7 km/h 6 mph /  9.7 km/h 43 % 0 in /  0.0 mm
15:32 77.2 °F /  25.1 °C 52.9 °F /  11.6 °C 30.1 in /  1017.8 hPa ESE 11.5 mph /  18.5 km/h 11.5 mph /  18.5 km/h 43 % 0 in /  0.0 mm
15:37 76.6 °F /  24.8 °C 53.1 °F /  11.7 °C 30.1 in /  1017.8 hPa ESE 5.8 mph /  9.3 km/h 5.8 mph /  9.3 km/h 44 % 0 in /  0.0 mm
15:42 76.3 °F /  24.6 °C 52.9 °F /  11.6 °C 30.1 in /  1017.8 hPa SE 6.9 mph /  11.1 km/h 6.9 mph /  11.1 km/h 44 % 0 in /  0.0 mm
15:47 76.3 °F /  24.6 °C 53.4 °F /  11.9 °C 30.1 in /  1018.8 hPa ENE 13.8 mph /  22.2 km/h 13.8 mph /  22.2 km/h 45 % 0 in /  0.0 mm
15:52 76.3 °F /  24.6 °C 54 °F /  12.2 °C 30.1 in /  1018.8 hPa East 9.2 mph /  14.8 km/h 9.2 mph /  14.8 km/h 46 % 0 in /  0.0 mm
15:57 76.3 °F /  24.6 °C 54 °F /  12.2 °C 30.1 in /  1018.8 hPa ESE 8.1 mph /  13.0 km/h 8.1 mph /  13.0 km/h 46 % 0 in /  0.0 mm
15:58 76.3 °F /  24.6 °C 54 °F /  12.2 °C 30.1 in /  1018.8 hPa SE 5.8 mph /  9.3 km/h 5.8 mph /  9.3 km/h 46 % 0 in /  0.0 mm
16:03 76.3 °F /  24.6 °C 54 °F /  12.2 °C 30.1 in /  1017.8 hPa SE 7.8 mph /  12.6 km/h 7.8 mph /  12.6 km/h 46 % 0 in /  0.0 mm
16:08 75.7 °F /  24.3 °C 54.1 °F /  12.3 °C 30.1 in /  1017.8 hPa South 9.2 mph /  14.8 km/h 9.2 mph /  14.8 km/h 47 % 0 in /  0.0 mm
16:13 75.9 °F /  24.4 °C 54.1 °F /  12.3 °C 30.1 in /  1017.8 hPa ENE 3.5 mph /  5.6 km/h 3.6 mph /  5.8 km/h 47 % 0 in /  0.0 mm
16:18 75.4 °F /  24.1 °C 53.8 °F /  12.1 °C 30.1 in /  1017.8 hPa ESE 9.2 mph /  14.8 km/h 9.2 mph /  14.8 km/h 47 % 0 in /  0.0 mm
16:23 75 °F /  23.9 °C 54 °F /  12.2 °C 30.1 in /  1017.8 hPa ESE 8.1 mph /  13.0 km/h 8.1 mph /  13.0 km/h 48 % 0 in /  0.0 mm
16:24 75 °F /  23.9 °C 54 °F /  12.2 °C 30.1 in /  1017.8 hPa SE 10.4 mph /  16.7 km/h 10.4 mph /  16.7 km/h 48 % 0 in /  0.0 mm
16:29 75.2 °F /  24.0 °C 54.1 °F /  12.3 °C 30.1 in /  1017.8 hPa SSE 5.8 mph /  9.3 km/h 5.8 mph /  9.3 km/h 48 % 0 in /  0.0 mm
16:34 75.2 °F /  24.0 °C 54.1 °F /  12.3 °C 30.1 in /  1017.8 hPa South 6.9 mph /  11.1 km/h 6.9 mph /  11.1 km/h 48 % 0 in /  0.0 mm
16:39 75.4 °F /  24.1 °C 54.3 °F /  12.4 °C 30.1 in /  1017.8 hPa East 3.5 mph /  5.6 km/h 3.5 mph /  5.6 km/h 48 % 0 in /  0.0 mm
16:44 75.6 °F /  24.2 °C 54.5 °F /  12.5 °C 30.1 in /  1017.8 hPa SSE 6.9 mph /  11.1 km/h 6.9 mph /  11.1 km/h 48 % 0 in /  0.0 mm
16:49 75.4 °F /  24.1 °C 54.3 °F /  12.4 °C 30.1 in /  1017.8 hPa ESE 5.6 mph /  9.0 km/h 5.6 mph /  9.0 km/h 48 % 0 in /  0.0 mm
16:54 75 °F /  23.9 °C 54 °F /  12.2 °C 30.1 in /  1017.8 hPa SE 4.6 mph /  7.4 km/h 4.6 mph /  7.4 km/h 48 % 0 in /  0.0 mm
16:59 75 °F /  23.9 °C 54.7 °F /  12.6 °C 30.1 in /  1017.8 hPa ESE 6.9 mph /  11.1 km/h 6.9 mph /  11.1 km/h 49 % 0 in /  0.0 mm
17:04 75 °F /  23.9 °C 54.7 °F /  12.6 °C 30.1 in /  1017.8 hPa SSE 7.1 mph /  11.4 km/h 7.1 mph /  11.4 km/h 49 % 0 in /  0.0 mm
17:09 75 °F /  23.9 °C 54.7 °F /  12.6 °C 30.1 in /  1017.8 hPa SW 4.6 mph /  7.4 km/h 4.6 mph /  7.4 km/h 49 % 0 in /  0.0 mm
17:14 75 °F /  23.9 °C 54.7 °F /  12.6 °C 30.1 in /  1017.8 hPa ESE 3.5 mph /  5.6 km/h 3.5 mph /  5.6 km/h 49 % 0 in /  0.0 mm
17:19 75.2 °F /  24.0 °C 54.7 °F /  12.6 °C 30.1 in /  1017.8 hPa East 2.9 mph /  4.7 km/h 2.9 mph /  4.7 km/h 49 % 0 in /  0.0 mm
17:24 75.4 °F /  24.1 °C 54.9 °F /  12.7 °C 30.1 in /  1017.8 hPa SW 3.5 mph /  5.6 km/h 3.5 mph /  5.6 km/h 49 % 0 in /  0.0 mm
17:29 75.2 °F /  24.0 °C 55.2 °F /  12.9 °C 30.1 in /  1017.8 hPa ESE 3.5 mph /  5.6 km/h 3.6 mph /  5.8 km/h 50 % 0 in /  0.0 mm
17:34 74.7 °F /  23.7 °C 54.9 °F /  12.7 °C 30.1 in /  1017.8 hPa NE 8.1 mph /  13.0 km/h 8.1 mph /  13.0 km/h 50 % 0 in /  0.0 mm
17:39 75 °F /  23.9 °C 55 °F /  12.8 °C 30.1 in /  1017.8 hPa ESE 7.4 mph /  11.9 km/h 7.4 mph /  11.9 km/h 50 % 0 in /  0.0 mm
17:44 75.2 °F /  24.0 °C 55.2 °F /  12.9 °C 30.1 in /  1017.8 hPa SSE 5.8 mph /  9.3 km/h 5.8 mph /  9.3 km/h 50 % 0 in /  0.0 mm
17:49 75 °F /  23.9 °C 55 °F /  12.8 °C 30.1 in /  1018.8 hPa ESE 6.9 mph /  11.1 km/h 6.9 mph /  11.1 km/h 50 % 0 in /  0.0 mm
17:54 75 °F /  23.9 °C 55 °F /  12.8 °C 30.1 in /  1018.8 hPa ESE 6.9 mph /  11.1 km/h 6.9 mph /  11.1 km/h 50 % 0 in /  0.0 mm
17:59 75 °F /  23.9 °C 55 °F /  12.8 °C 30.1 in /  1017.8 hPa ESE 7.8 mph /  12.6 km/h 7.8 mph /  12.6 km/h 50 % 0 in /  0.0 mm
18:04 75.2 °F /  24.0 °C 55.2 °F /  12.9 °C 30.1 in /  1017.8 hPa ESE 8.1 mph /  13.0 km/h 8.1 mph /  13.0 km/h 50 % 0 in /  0.0 mm
18:09 75.2 °F /  24.0 °C 55.2 °F /  12.9 °C 30.1 in /  1017.8 hPa ESE 6.9 mph /  11.1 km/h 6.9 mph /  11.1 km/h 50 % 0 in /  0.0 mm
18:14 75 °F /  23.9 °C 55 °F /  12.8 °C 30.1 in /  1017.8 hPa South 5.8 mph /  9.3 km/h 5.8 mph /  9.3 km/h 50 % 0 in /  0.0 mm
18:19 74.5 °F /  23.6 °C 54.7 °F /  12.6 °C 30.1 in /  1018.8 hPa ESE 9.2 mph /  14.8 km/h 9.2 mph /  14.8 km/h 50 % 0 in /  0.0 mm
18:24 74.7 °F /  23.7 °C 54.9 °F /  12.7 °C 30.1 in /  1018.8 hPa SSE 3.8 mph /  6.1 km/h 4 mph /  6.4 km/h 50 % 0 in /  0.0 mm
18:29 74.7 °F /  23.7 °C 54.9 °F /  12.7 °C 30.1 in /  1018.8 hPa South 5.8 mph /  9.3 km/h 5.8 mph /  9.3 km/h 50 % 0 in /  0.0 mm
18:34 74.3 °F /  23.5 °C 54.5 °F /  12.5 °C 30.1 in /  1018.8 hPa NE 6.9 mph /  11.1 km/h 6.9 mph /  11.1 km/h 50 % 0 in /  0.0 mm
18:39 73.9 °F /  23.3 °C 54.1 °F /  12.3 °C 30.1 in /  1018.8 hPa ESE 9.2 mph /  14.8 km/h 9.2 mph /  14.8 km/h 50 % 0 in /  0.0 mm
18:44 73.9 °F /  23.3 °C 54.1 °F /  12.3 °C 30.1 in /  1017.8 hPa ESE 6.9 mph /  11.1 km/h 6.9 mph /  11.1 km/h 50 % 0 in /  0.0 mm
18:49 74.1 °F /  23.4 °C 54.9 °F /  12.7 °C 30.1 in /  1017.8 hPa East 11.8 mph /  19.0 km/h 11.8 mph /  19.0 km/h 51 % 0 in /  0.0 mm
18:54 73.9 °F /  23.3 °C 55.2 °F /  12.9 °C 30.1 in /  1017.8 hPa East 9.2 mph /  14.8 km/h 9.2 mph /  14.8 km/h 52 % 0 in /  0.0 mm
18:59 73.6 °F /  23.1 °C 55.4 °F /  13.0 °C 30.1 in /  1017.8 hPa ESE 10.2 mph /  16.4 km/h 10.2 mph /  16.4 km/h 53 % 0 in /  0.0 mm
19:04 73.4 °F /  23.0 °C 56.1 °F /  13.4 °C 30.1 in /  1018.8 hPa SE 9.2 mph /  14.8 km/h 9.2 mph /  14.8 km/h 55 % 0 in /  0.0 mm
19:09 73.2 °F /  22.9 °C 56.1 °F /  13.4 °C 30.1 in /  1018.8 hPa ESE 8.1 mph /  13.0 km/h 8.1 mph /  13.0 km/h 55 % 0 in /  0.0 mm
19:14 73 °F /  22.8 °C 56.5 °F /  13.6 °C 30.1 in /  1018.8 hPa ESE 9.2 mph /  14.8 km/h 9.2 mph /  14.8 km/h 56 % 0 in /  0.0 mm
19:19 73.4 °F /  23.0 °C 56.1 °F /  13.4 °C 30.1 in /  1017.8 hPa East 5.8 mph /  9.3 km/h 5.8 mph /  9.3 km/h 55 % 0 in /  0.0 mm
19:20 67.6 °F /  19.8 °C 55.9 °F /  13.3 °C 30.2 in /  1021.9 hPa NE 2 mph /  3.2 km/h 2 mph /  3.2 km/h 66 % 0 in /  0.0 mm
19:24 73.4 °F /  23.0 °C 56.1 °F /  13.4 °C 30.1 in /  1017.8 hPa SSE 3.6 mph /  5.8 km/h 3.6 mph /  5.8 km/h 55 % 0 in /  0.0 mm
19:26 73.2 °F /  22.9 °C 56.1 °F /  13.4 °C 30.1 in /  1017.8 hPa South 8.1 mph /  13.0 km/h 8.1 mph /  13.0 km/h 55 % 0 in /  0.0 mm
19:30 67.5 °F /  19.7 °C 56.1 °F /  13.4 °C 30.2 in /  1021.9 hPa NE 2 mph /  3.2 km/h 3 mph /  4.8 km/h 67 % 0 in /  0.0 mm
19:31 73 °F /  22.8 °C 55.9 °F /  13.3 °C 30.1 in /  1018.8 hPa SE 5.8 mph /  9.3 km/h 5.8 mph /  9.3 km/h 55 % 0 in /  0.0 mm
19:36 73 °F /  22.8 °C 55.9 °F /  13.3 °C 30.1 in /  1018.8 hPa ESE 6.2 mph /  10.0 km/h 6.2 mph /  10.0 km/h 55 % 0 in /  0.0 mm
19:40 67.5 °F /  19.7 °C 56.1 °F /  13.4 °C 30.2 in /  1020.9 hPa NNE 2 mph /  3.2 km/h 3 mph /  4.8 km/h 67 % 0 in /  0.0 mm
19:41 72.9 °F /  22.7 °C 55.8 °F /  13.2 °C 30.1 in /  1018.8 hPa SSE 5.8 mph /  9.3 km/h 5.8 mph /  9.3 km/h 55 % 0 in /  0.0 mm
19:46 72.7 °F /  22.6 °C 56.1 °F /  13.4 °C 30.1 in /  1018.8 hPa SSE 8.5 mph /  13.7 km/h 8.5 mph /  13.7 km/h 56 % 0 in /  0.0 mm
19:50 67.3 °F /  19.6 °C 56.5 °F /  13.6 °C 30.2 in /  1021.9 hPa NNE 2 mph /  3.2 km/h 3 mph /  4.8 km/h 68 % 0 in /  0.0 mm
19:51 72.7 °F /  22.6 °C 56.1 °F /  13.4 °C 30.1 in /  1018.8 hPa ESE 4.6 mph /  7.4 km/h 4.6 mph /  7.4 km/h 56 % 0 in /  0.0 mm
19:56 72.5 °F /  22.5 °C 55.9 °F /  13.3 °C 30.1 in /  1018.8 hPa SE 9.8 mph /  15.8 km/h 9.8 mph /  15.8 km/h 56 % 0 in /  0.0 mm
20:00 67.3 °F /  19.6 °C 56.8 °F /  13.8 °C 30.2 in /  1021.9 hPa NE 2 mph /  3.2 km/h 3 mph /  4.8 km/h 69 % 0 in /  0.0 mm
20:01 72.1 °F /  22.3 °C 56.1 °F /  13.4 °C 30.1 in /  1018.8 hPa ESE 8.1 mph /  13.0 km/h 8.1 mph /  13.0 km/h 57 % 0 in /  0.0 mm
20:06 72 °F /  22.2 °C 55.9 °F /  13.3 °C 30.1 in /  1018.8 hPa ESE 6.9 mph /  11.1 km/h 6.9 mph /  11.1 km/h 57 % 0 in /  0.0 mm
20:10 67.3 °F /  19.6 °C 56.8 °F /  13.8 °C 30.2 in /  1021.9 hPa NNE 1 mph /  1.6 km/h 2 mph /  3.2 km/h 69 % 0 in /  0.0 mm
20:11 72 °F /  22.2 °C 55.9 °F /  13.3 °C 30.1 in /  1018.8 hPa ESE 2.3 mph /  3.7 km/h 2.9 mph /  4.7 km/h 57 % 0 in /  0.0 mm
20:16 72 °F /  22.2 °C 56.5 °F /  13.6 °C 30.1 in /  1018.8 hPa ESE 4.6 mph /  7.4 km/h 4.6 mph /  7.4 km/h 58 % 0 in /  0.0 mm
20:20 67.1 °F /  19.5 °C 56.7 °F /  13.7 °C 30.2 in /  1021.9 hPa NNE 2 mph /  3.2 km/h 2 mph /  3.2 km/h 69 % 0 in /  0.0 mm
20:21 71.8 °F /  22.1 °C 55.8 °F /  13.2 °C 30.1 in /  1018.8 hPa ESE 6.9 mph /  11.1 km/h 6.9 mph /  11.1 km/h 57 % 0 in /  0.0 mm
20:26 71.6 °F /  22.0 °C 55.6 °F /  13.1 °C 30.1 in /  1018.8 hPa ESE 6.2 mph /  10.0 km/h 6.2 mph /  10.0 km/h 57 % 0 in /  0.0 mm
20:30 66.7 °F /  19.3 °C 56.7 °F /  13.7 °C 30.2 in /  1021.9 hPa NNE 1 mph /  1.6 km/h 2 mph /  3.2 km/h 70 % 0 in /  0.0 mm
20:31 71.6 °F /  22.0 °C 55.9 °F /  13.3 °C 30.1 in /  1018.8 hPa ESE 8.1 mph /  13.0 km/h 8.1 mph /  13.0 km/h 58 % 0 in /  0.0 mm
20:36 71.4 °F /  21.9 °C 56.3 °F /  13.5 °C 30.1 in /  1018.8 hPa ENE 4.6 mph /  7.4 km/h 4.6 mph /  7.4 km/h 59 % 0 in /  0.0 mm
20:40 66.6 °F /  19.2 °C 56.5 °F /  13.6 °C 30.2 in /  1020.9 hPa NNE 1 mph /  1.6 km/h 2 mph /  3.2 km/h 70 % 0 in /  0.0 mm
20:41 71.4 °F /  21.9 °C 56.3 °F /  13.5 °C 30.1 in /  1018.8 hPa ENE 9.8 mph /  15.8 km/h 9.8 mph /  15.8 km/h 59 % 0 in /  0.0 mm
20:46 71.2 °F /  21.8 °C 56.1 °F /  13.4 °C 30.1 in /  1018.8 hPa ESE 9.2 mph /  14.8 km/h 9.2 mph /  14.8 km/h 59 % 0 in /  0.0 mm
20:50 66.4 °F /  19.1 °C 56.7 °F /  13.7 °C 30.2 in /  1020.9 hPa Calm   1 mph /  1.6 km/h 71 % 0 in /  0.0 mm
20:51 71.1 °F /  21.7 °C 55.9 °F /  13.3 °C 30.1 in /  1018.8 hPa East 6.9 mph /  11.1 km/h 6.9 mph /  11.1 km/h 59 % 0 in /  0.0 mm
20:56 71.1 °F /  21.7 °C 55.9 °F /  13.3 °C 30.1 in /  1018.8 hPa ESE 5.8 mph /  9.3 km/h 5.8 mph /  9.3 km/h 59 % 0 in /  0.0 mm
21:00 66.2 °F /  19.0 °C 56.5 °F /  13.6 °C 30.2 in /  1020.9 hPa Calm   1 mph /  1.6 km/h 71 % 0 in /  0.0 mm
21:01 71.1 °F /  21.7 °C 55.9 °F /  13.3 °C 30.1 in /  1019.9 hPa ESE 7.1 mph /  11.4 km/h 7.1 mph /  11.4 km/h 59 % 0 in /  0.0 mm
21:06 70.9 °F /  21.6 °C 56.3 °F /  13.5 °C 30.1 in /  1019.9 hPa ESE 5.8 mph /  9.3 km/h 5.8 mph /  9.3 km/h 60 % 0 in /  0.0 mm
21:10 65.8 °F /  18.8 °C 56.7 °F /  13.7 °C 30.2 in /  1020.9 hPa Calm   1 mph /  1.6 km/h 72 % 0 in /  0.0 mm
21:11 70.7 °F /  21.5 °C 56.1 °F /  13.4 °C 30.1 in /  1019.9 hPa ESE 5.8 mph /  9.3 km/h 5.8 mph /  9.3 km/h 60 % 0 in /  0.0 mm
21:16 70.7 °F /  21.5 °C 56.1 °F /  13.4 °C 30.1 in /  1019.9 hPa NE 6.9 mph /  11.1 km/h 6.9 mph /  11.1 km/h 60 % 0 in /  0.0 mm
21:20 65.8 °F /  18.8 °C 56.8 °F /  13.8 °C 30.2 in /  1020.9 hPa Calm     73 % 0 in /  0.0 mm
21:21 70.9 °F /  21.6 °C 56.3 °F /  13.5 °C 30.1 in /  1019.9 hPa East 3.6 mph /  5.8 km/h 3.6 mph /  5.8 km/h 60 % 0 in /  0.0 mm
21:26 70.7 °F /  21.5 °C 56.7 °F /  13.7 °C 30.1 in /  1019.9 hPa SE 6 mph /  9.7 km/h 6 mph /  9.7 km/h 61 % 0 in /  0.0 mm
21:30 65.8 °F /  18.8 °C 56.8 °F /  13.8 °C 30.2 in /  1020.9 hPa NNE 2 mph /  3.2 km/h 2 mph /  3.2 km/h 73 % 0 in /  0.0 mm
21:31 70.7 °F /  21.5 °C 56.7 °F /  13.7 °C 30.1 in /  1018.8 hPa ESE 3.6 mph /  5.8 km/h 3.6 mph /  5.8 km/h 61 % 0 in /  0.0 mm
21:36 70.7 °F /  21.5 °C 56.7 °F /  13.7 °C 30.1 in /  1018.8 hPa SE 3.8 mph /  6.1 km/h 3.8 mph /  6.1 km/h 61 % 0 in /  0.0 mm
21:40 65.8 °F /  18.8 °C 56.8 °F /  13.8 °C 30.2 in /  1020.9 hPa NNE 2 mph /  3.2 km/h 3 mph /  4.8 km/h 73 % 0 in /  0.0 mm
21:41 70.7 °F /  21.5 °C 56.7 °F /  13.7 °C 30.1 in /  1018.8 hPa SE 3.5 mph /  5.6 km/h 3.5 mph /  5.6 km/h 61 % 0 in /  0.0 mm
21:46 70.5 °F /  21.4 °C 56.5 °F /  13.6 °C 30.1 in /  1019.9 hPa ESE 5.8 mph /  9.3 km/h 5.8 mph /  9.3 km/h 61 % 0 in /  0.0 mm
21:50 65.7 °F /  18.7 °C 56.8 °F /  13.8 °C 30.1 in /  1019.9 hPa NNE 2 mph /  3.2 km/h 2 mph /  3.2 km/h 73 % 0 in /  0.0 mm
21:51 70.5 °F /  21.4 °C 56.5 °F /  13.6 °C 30.1 in /  1019.9 hPa ENE 3.5 mph /  5.6 km/h 3.5 mph /  5.6 km/h 61 % 0 in /  0.0 mm
21:56 70.5 °F /  21.4 °C 56.5 °F /  13.6 °C 30.1 in /  1019.9 hPa ESE 6.9 mph /  11.1 km/h 6.9 mph /  11.1 km/h 61 % 0 in /  0.0 mm
22:00 65.5 °F /  18.6 °C 56.7 °F /  13.7 °C 30.1 in /  1019.9 hPa NNE 1 mph /  1.6 km/h 2 mph /  3.2 km/h 73 % 0 in /  0.0 mm
22:01 70.3 °F /  21.3 °C 56.1 °F /  13.4 °C 30.1 in /  1019.9 hPa NE 5.8 mph /  9.3 km/h 5.8 mph /  9.3 km/h 61 % 0 in /  0.0 mm
22:06 70.2 °F /  21.2 °C 56.1 °F /  13.4 °C 30.1 in /  1019.9 hPa ESE 4.6 mph /  7.4 km/h 4.6 mph /  7.4 km/h 61 % 0 in /  0.0 mm
22:10 65.5 °F /  18.6 °C 56.7 °F /  13.7 °C 30.2 in /  1020.9 hPa Calm   2 mph /  3.2 km/h 73 % 0 in /  0.0 mm
22:11 70.2 °F /  21.2 °C 56.1 °F /  13.4 °C 30.1 in /  1019.9 hPa East 5.8 mph /  9.3 km/h 5.8 mph /  9.3 km/h 61 % 0 in /  0.0 mm
22:16 70.2 °F /  21.2 °C 56.5 °F /  13.6 °C 30.1 in /  1019.9 hPa East 3.3 mph /  5.3 km/h 3.3 mph /  5.3 km/h 62 % 0 in /  0.0 mm
22:20 65.1 °F /  18.4 °C 56.7 °F /  13.7 °C 30.2 in /  1020.9 hPa Calm     74 % 0 in /  0.0 mm
22:21 70 °F /  21.1 °C 56.5 °F /  13.6 °C 30.1 in /  1019.9 hPa ESE 3.5 mph /  5.6 km/h 3.5 mph /  5.6 km/h 62 % 0 in /  0.0 mm
22:26 70 °F /  21.1 °C 56.5 °F /  13.6 °C 30.1 in /  1019.9 hPa ESE 3.8 mph /  6.1 km/h 3.8 mph /  6.1 km/h 62 % 0 in /  0.0 mm
22:30 64.9 °F /  18.3 °C 56.5 °F /  13.6 °C 30.2 in /  1020.9 hPa Calm     74 % 0 in /  0.0 mm
22:31 69.8 °F /  21.0 °C 56.1 °F /  13.4 °C 30.1 in /  1019.9 hPa ENE 2.9 mph /  4.7 km/h 2.9 mph /  4.7 km/h 62 % 0 in /  0.0 mm
22:36 69.8 °F /  21.0 °C 56.1 °F /  13.4 °C 30.1 in /  1019.9 hPa ESE 4.6 mph /  7.4 km/h 4.6 mph /  7.4 km/h 62 % 0 in /  0.0 mm
22:38 69.8 °F /  21.0 °C 56.1 °F /  13.4 °C 30.1 in /  1019.9 hPa SE 3.5 mph /  5.6 km/h 3.5 mph /  5.6 km/h 62 % 0 in /  0.0 mm
22:40 65.1 °F /  18.4 °C 57 °F /  13.9 °C 30.2 in /  1020.9 hPa Calm   2 mph /  3.2 km/h 75 % 0 in /  0.0 mm
22:43 69.6 °F /  20.9 °C 55.9 °F /  13.3 °C 30.1 in /  1019.9 hPa ESE 3.5 mph /  5.6 km/h 3.5 mph /  5.6 km/h 62 % 0 in /  0.0 mm
22:48 69.4 °F /  20.8 °C 55.9 °F /  13.3 °C 30.1 in /  1019.9 hPa ENE 2.3 mph /  3.7 km/h 2.3 mph /  3.7 km/h 62 % 0 in /  0.0 mm
22:50 65.1 °F /  18.4 °C 57 °F /  13.9 °C 30.2 in /  1020.9 hPa Calm   2 mph /  3.2 km/h 75 % 0 in /  0.0 mm
22:53 69.3 °F /  20.7 °C 55.8 °F /  13.2 °C 30.1 in /  1019.9 hPa NE 2.3 mph /  3.7 km/h 2.3 mph /  3.7 km/h 62 % 0 in /  0.0 mm
22:58 69.1 °F /  20.6 °C 55 °F /  12.8 °C 30.1 in /  1019.9 hPa ENE 4.6 mph /  7.4 km/h 4.6 mph /  7.4 km/h 61 % 0 in /  0.0 mm
23:00 65.1 °F /  18.4 °C 57 °F /  13.9 °C 30.2 in /  1020.9 hPa NNE 1 mph /  1.6 km/h 1 mph /  1.6 km/h 75 % 0 in /  0.0 mm
23:03 68.9 °F /  20.5 °C 54.9 °F /  12.7 °C 30.2 in /  1020.9 hPa ENE 1.2 mph /  1.9 km/h 1.2 mph /  1.9 km/h 61 % 0 in /  0.0 mm
23:08 68.9 °F /  20.5 °C 55.2 °F /  12.9 °C 30.2 in /  1020.9 hPa NE 2.3 mph /  3.7 km/h 2.3 mph /  3.7 km/h 62 % 0 in /  0.0 mm
23:10 64.9 °F /  18.3 °C 56.8 °F /  13.8 °C 30.1 in /  1019.9 hPa NNE 1 mph /  1.6 km/h 2 mph /  3.2 km/h 75 % 0 in /  0.0 mm
23:13 68.7 °F /  20.4 °C 55.6 °F /  13.1 °C 30.2 in /  1020.9 hPa ENE 2.3 mph /  3.7 km/h 2.3 mph /  3.7 km/h 63 % 0 in /  0.0 mm
23:18 68.7 °F /  20.4 °C 55.6 °F /  13.1 °C 30.2 in /  1020.9 hPa East 3.5 mph /  5.6 km/h 3.5 mph /  5.6 km/h 63 % 0 in /  0.0 mm
23:20 64.9 °F /  18.3 °C 56.8 °F /  13.8 °C 30.1 in /  1019.9 hPa NNE 1 mph /  1.6 km/h 2 mph /  3.2 km/h 75 % 0 in /  0.0 mm
23:23 68.4 °F /  20.2 °C 55.2 °F /  12.9 °C 30.2 in /  1020.9 hPa ENE 2.3 mph /  3.7 km/h 2.3 mph /  3.7 km/h 63 % 0 in /  0.0 mm
23:28 68.4 °F /  20.2 °C 55.2 °F /  12.9 °C 30.2 in /  1020.9 hPa ENE 2.3 mph /  3.7 km/h 2.3 mph /  3.7 km/h 63 % 0 in /  0.0 mm
23:30 64.6 °F /  18.1 °C 56.5 °F /  13.6 °C 30.1 in /  1019.9 hPa NNE 1 mph /  1.6 km/h 2 mph /  3.2 km/h 75 % 0 in /  0.0 mm
23:33 68.2 °F /  20.1 °C 55 °F /  12.8 °C 30.2 in /  1020.9 hPa NE 2.3 mph /  3.7 km/h 2.3 mph /  3.7 km/h 63 % 0 in /  0.0 mm
23:38 68.2 °F /  20.1 °C 55 °F /  12.8 °C 30.2 in /  1020.9 hPa ENE 2.3 mph /  3.7 km/h 2.3 mph /  3.7 km/h 63 % 0 in /  0.0 mm
23:40 64.4 °F /  18.0 °C 56.7 °F /  13.7 °C 30.1 in /  1019.9 hPa NNE 1 mph /  1.6 km/h 2 mph /  3.2 km/h 76 % 0 in /  0.0 mm
23:43 68.2 °F /  20.1 °C 55 °F /  12.8 °C 30.2 in /  1020.9 hPa NE 2.9 mph /  4.7 km/h 2.9 mph /  4.7 km/h 63 % 0 in /  0.0 mm
23:48 68 °F /  20.0 °C 54.9 °F /  12.7 °C 30.2 in /  1020.9 hPa NNE 2.4 mph /  3.9 km/h 2.4 mph /  3.9 km/h 63 % 0 in /  0.0 mm
23:50 64.2 °F /  17.9 °C 56.5 °F /  13.6 °C 30.1 in /  1019.9 hPa Calm   1 mph /  1.6 km/h 76 % 0 in /  0.0 mm
23:53 68.2 °F /  20.1 °C 55 °F /  12.8 °C 30.2 in /  1020.9 hPa ENE 2.4 mph /  3.9 km/h 2.4 mph /  3.9 km/h 63 % 0 in /  0.0 mm
23:58 68.2 °F /  20.1 °C 55 °F /  12.8 °C 30.2 in /  1020.9 hPa NNE 2.4 mph /  3.9 km/h 2.4 mph /  3.9 km/h 63 % 0 in /  0.0 mm
Meteo Sesrovires
Elogis d' Weather Underground - 3.75 mb

Guio original per  Jim McMurry - jmcmurry@mwt.net Adaptat per a la plantilla per  Wim van der Kuil - Leuven-Template.eu

Trobareu la nostra informacio del temps tambe a:

Weather Underground

AWEKAS